sensor_id;sensor_type;location;lat;lon;timestamp;pressure;altitude;pressure_sealevel;temperature;humidity
70407;BME280;57821;52.202;0.154;2024-03-25T00:00:40;100763.19;;;6.18;64.67
70407;BME280;57821;52.202;0.154;2024-03-25T00:03:06;100760.59;;;6.16;64.36
70407;BME280;57821;52.202;0.154;2024-03-25T00:05:31;100755.41;;;6.13;64.12
70407;BME280;57821;52.202;0.154;2024-03-25T00:07:58;100743.38;;;6.11;65.45
70407;BME280;57821;52.202;0.154;2024-03-25T00:10:24;100747.56;;;6.06;64.79
70407;BME280;57821;52.202;0.154;2024-03-25T00:12:51;100741.53;;;6.04;65.58
70407;BME280;57821;52.202;0.154;2024-03-25T00:15:22;100746.63;;;6.01;65.53
70407;BME280;57821;52.202;0.154;2024-03-25T00:17:49;100746.56;;;5.96;64.38
70407;BME280;57821;52.202;0.154;2024-03-25T00:20:15;100754.22;;;5.92;65.44
70407;BME280;57821;52.202;0.154;2024-03-25T00:22:41;100755.91;;;5.90;64.62
70407;BME280;57821;52.202;0.154;2024-03-25T00:25:08;100757.59;;;5.89;65.47
70407;BME280;57821;52.202;0.154;2024-03-25T00:27:34;100754.16;;;5.89;64.29
70407;BME280;57821;52.202;0.154;2024-03-25T00:30:00;100748.19;;;5.88;64.48
70407;BME280;57821;52.202;0.154;2024-03-25T00:32:25;100759.31;;;5.89;64.94
70407;BME280;57821;52.202;0.154;2024-03-25T00:34:51;100759.31;;;5.89;65.61
70407;BME280;57821;52.202;0.154;2024-03-25T00:37:17;100755.84;;;5.87;64.62
70407;BME280;57821;52.202;0.154;2024-03-25T00:39:43;100749.88;;;5.88;64.63
70407;BME280;57821;52.202;0.154;2024-03-25T00:42:08;100744.75;;;5.88;64.81
70407;BME280;57821;52.202;0.154;2024-03-25T00:44:34;100737.06;;;5.91;64.74
70407;BME280;57821;52.202;0.154;2024-03-25T00:47:00;100734.53;;;5.94;64.86
70407;BME280;57821;52.202;0.154;2024-03-25T00:49:26;100731.09;;;5.93;64.56
70407;BME280;57821;52.202;0.154;2024-03-25T00:51:51;100723.38;;;5.95;65.64
70407;BME280;57821;52.202;0.154;2024-03-25T00:54:17;100707.94;;;5.95;64.71
70407;BME280;57821;52.202;0.154;2024-03-25T00:56:43;100708.81;;;5.97;65.70
70407;BME280;57821;52.202;0.154;2024-03-25T00:59:09;100709.66;;;5.96;65.61
70407;BME280;57821;52.202;0.154;2024-03-25T01:01:35;100701.09;;;5.97;64.75
70407;BME280;57821;52.202;0.154;2024-03-25T01:04:04;100702.84;;;5.98;64.68
70407;BME280;57821;52.202;0.154;2024-03-25T01:06:31;100693.44;;;6.00;64.63
70407;BME280;57821;52.202;0.154;2024-03-25T01:08:57;100696.03;;;6.00;65.95
70407;BME280;57821;52.202;0.154;2024-03-25T01:11:22;100707.16;;;6.00;66.26
70407;BME280;57821;52.202;0.154;2024-03-25T01:13:48;100702.88;;;6.01;65.10
70407;BME280;57821;52.202;0.154;2024-03-25T01:16:14;100701.19;;;6.03;65.82
70407;BME280;57821;52.202;0.154;2024-03-25T01:18:40;100696.94;;;6.05;65.23
70407;BME280;57821;52.202;0.154;2024-03-25T01:21:06;100691.78;;;6.06;65.67
70407;BME280;57821;52.202;0.154;2024-03-25T01:23:31;100679.84;;;6.10;65.45
70407;BME280;57821;52.202;0.154;2024-03-25T01:25:57;100673.00;;;6.12;66.30
70407;BME280;57821;52.202;0.154;2024-03-25T01:28:23;100667.00;;;6.13;65.90
70407;BME280;57821;52.202;0.154;2024-03-25T01:30:49;100669.59;;;6.14;65.80
70407;BME280;57821;52.202;0.154;2024-03-25T01:33:15;100665.28;;;6.12;66.33
70407;BME280;57821;52.202;0.154;2024-03-25T01:35:40;100666.97;;;6.10;66.97
70407;BME280;57821;52.202;0.154;2024-03-25T01:38:06;100665.25;;;6.09;67.17
70407;BME280;57821;52.202;0.154;2024-03-25T01:40:33;100661.78;;;6.07;66.80
70407;BME280;57821;52.202;0.154;2024-03-25T01:43:01;100652.31;;;6.06;66.50
70407;BME280;57821;52.202;0.154;2024-03-25T01:45:29;100651.44;;;6.04;67.52
70407;BME280;57821;52.202;0.154;2024-03-25T01:47:56;100635.94;;;5.98;67.72
70407;BME280;57821;52.202;0.154;2024-03-25T01:50:24;100636.78;;;5.97;67.56
70407;BME280;57821;52.202;0.154;2024-03-25T01:52:50;100638.50;;;5.98;66.66
70407;BME280;57821;52.202;0.154;2024-03-25T01:55:20;100644.50;;;5.97;67.82
70407;BME280;57821;52.202;0.154;2024-03-25T01:57:47;100635.88;;;5.95;67.41
70407;BME280;57821;52.202;0.154;2024-03-25T02:00:14;100629.03;;;5.94;67.83
70407;BME280;57821;52.202;0.154;2024-03-25T02:02:45;100625.56;;;5.95;67.59
70407;BME280;57821;52.202;0.154;2024-03-25T02:05:13;100626.44;;;5.95;67.97
70407;BME280;57821;52.202;0.154;2024-03-25T02:07:40;100615.28;;;5.95;67.38
70407;BME280;57821;52.202;0.154;2024-03-25T02:10:08;100614.44;;;5.96;68.52
70407;BME280;57821;52.202;0.154;2024-03-25T02:12:37;100611.03;;;5.97;67.99
70407;BME280;57821;52.202;0.154;2024-03-25T02:15:06;100602.44;;;5.96;68.02
70407;BME280;57821;52.202;0.154;2024-03-25T02:17:34;100600.78;;;5.98;67.94
70407;BME280;57821;52.202;0.154;2024-03-25T02:20:00;100593.91;;;5.99;68.64
70407;BME280;57821;52.202;0.154;2024-03-25T02:22:26;100584.47;;;5.98;68.65
70407;BME280;57821;52.202;0.154;2024-03-25T02:24:52;100573.25;;;5.94;68.81
70407;BME280;57821;52.202;0.154;2024-03-25T02:27:19;100569.88;;;5.98;68.60
70407;BME280;57821;52.202;0.154;2024-03-25T02:29:44;100569.03;;;5.99;67.97
70407;BME280;57821;52.202;0.154;2024-03-25T02:32:11;100563.03;;;6.00;69.21
70407;BME280;57821;52.202;0.154;2024-03-25T02:34:37;100569.91;;;6.01;68.45
70407;BME280;57821;52.202;0.154;2024-03-25T02:37:04;100563.06;;;6.02;68.96
70407;BME280;57821;52.202;0.154;2024-03-25T02:39:31;100556.16;;;6.01;69.20
70407;BME280;57821;52.202;0.154;2024-03-25T02:41:57;100555.31;;;6.02;68.75
70407;BME280;57821;52.202;0.154;2024-03-25T02:44:23;100550.16;;;6.00;69.56
70407;BME280;57821;52.202;0.154;2024-03-25T02:46:49;100551.03;;;6.01;68.68
70407;BME280;57821;52.202;0.154;2024-03-25T02:49:15;100548.50;;;6.04;69.14
70407;BME280;57821;52.202;0.154;2024-03-25T02:51:41;100541.66;;;6.04;68.60
70407;BME280;57821;52.202;0.154;2024-03-25T02:54:07;100543.38;;;6.05;68.99
70407;BME280;57821;52.202;0.154;2024-03-25T02:56:34;100536.47;;;6.03;68.96
70407;BME280;57821;52.202;0.154;2024-03-25T02:59:01;100538.22;;;6.07;69.67
70407;BME280;57821;52.202;0.154;2024-03-25T03:01:27;100521.91;;;6.06;69.94
70407;BME280;57821;52.202;0.154;2024-03-25T03:03:52;100530.56;;;6.10;68.96
70407;BME280;57821;52.202;0.154;2024-03-25T03:06:18;100524.56;;;6.11;70.16
70407;BME280;57821;52.202;0.154;2024-03-25T03:08:44;100523.72;;;6.13;69.82
70407;BME280;57821;52.202;0.154;2024-03-25T03:11:10;100517.75;;;6.16;69.92
70407;BME280;57821;52.202;0.154;2024-03-25T03:13:36;100522.91;;;6.19;69.14
70407;BME280;57821;52.202;0.154;2024-03-25T03:16:01;100509.19;;;6.20;69.20
70407;BME280;57821;52.202;0.154;2024-03-25T03:18:27;100508.38;;;6.24;69.67
70407;BME280;57821;52.202;0.154;2024-03-25T03:20:53;100511.84;;;6.26;70.06
70407;BME280;57821;52.202;0.154;2024-03-25T03:23:22;100508.41;;;6.27;70.26
70407;BME280;57821;52.202;0.154;2024-03-25T03:25:48;100503.28;;;6.30;70.17
70407;BME280;57821;52.202;0.154;2024-03-25T03:28:14;100497.28;;;6.31;70.30
70407;BME280;57821;52.202;0.154;2024-03-25T03:30:41;100491.31;;;6.34;69.88
70407;BME280;57821;52.202;0.154;2024-03-25T03:33:07;100485.31;;;6.36;70.45
70407;BME280;57821;52.202;0.154;2024-03-25T03:35:33;100485.34;;;6.39;69.68
70407;BME280;57821;52.202;0.154;2024-03-25T03:37:59;100471.63;;;6.40;70.84
70407;BME280;57821;52.202;0.154;2024-03-25T03:40:26;100479.38;;;6.43;69.95
70407;BME280;57821;52.202;0.154;2024-03-25T03:42:52;100472.53;;;6.45;70.36
70407;BME280;57821;52.202;0.154;2024-03-25T03:45:17;100481.13;;;6.49;70.06
70407;BME280;57821;52.202;0.154;2024-03-25T03:47:43;100477.72;;;6.53;70.19
70407;BME280;57821;52.202;0.154;2024-03-25T03:50:09;100467.47;;;6.56;69.84
70407;BME280;57821;52.202;0.154;2024-03-25T03:52:35;100458.88;;;6.57;69.34
70407;BME280;57821;52.202;0.154;2024-03-25T03:55:01;100452.03;;;6.60;69.61
70407;BME280;57821;52.202;0.154;2024-03-25T03:57:26;100455.47;;;6.61;69.38
70407;BME280;57821;52.202;0.154;2024-03-25T03:59:52;100453.78;;;6.63;70.00
70407;BME280;57821;52.202;0.154;2024-03-25T04:02:18;100451.19;;;6.65;70.03
70407;BME280;57821;52.202;0.154;2024-03-25T04:04:44;100454.66;;;6.67;69.89
70407;BME280;57821;52.202;0.154;2024-03-25T04:07:10;100443.53;;;6.69;70.07
70407;BME280;57821;52.202;0.154;2024-03-25T04:09:36;100444.41;;;6.70;69.49
70407;BME280;57821;52.202;0.154;2024-03-25T04:12:01;100445.25;;;6.73;69.13
70407;BME280;57821;52.202;0.154;2024-03-25T04:14:27;100447.84;;;6.76;68.98
70407;BME280;57821;52.202;0.154;2024-03-25T04:16:53;100447.88;;;6.78;68.42
70407;BME280;57821;52.202;0.154;2024-03-25T04:19:21;100448.75;;;6.80;68.17
70407;BME280;57821;52.202;0.154;2024-03-25T04:21:48;100449.63;;;6.83;68.83
70407;BME280;57821;52.202;0.154;2024-03-25T04:24:14;100444.47;;;6.85;68.61
70407;BME280;57821;52.202;0.154;2024-03-25T04:26:40;100447.06;;;6.88;68.12
70407;BME280;57821;52.202;0.154;2024-03-25T04:29:06;100447.09;;;6.91;68.91
70407;BME280;57821;52.202;0.154;2024-03-25T04:31:31;100441.09;;;6.92;68.24
70407;BME280;57821;52.202;0.154;2024-03-25T04:33:57;100450.53;;;6.94;68.46
70407;BME280;57821;52.202;0.154;2024-03-25T04:36:23;100455.72;;;6.96;68.29
70407;BME280;57821;52.202;0.154;2024-03-25T04:38:48;100444.56;;;6.97;68.26
70407;BME280;57821;52.202;0.154;2024-03-25T04:41:15;100445.44;;;6.97;68.18
70407;BME280;57821;52.202;0.154;2024-03-25T04:43:41;100436.84;;;6.98;67.79
70407;BME280;57821;52.202;0.154;2024-03-25T04:46:06;100434.25;;;7.00;67.61
70407;BME280;57821;52.202;0.154;2024-03-25T04:48:32;100435.97;;;7.01;67.52
70407;BME280;57821;52.202;0.154;2024-03-25T04:50:58;100437.72;;;7.02;67.18
70407;BME280;57821;52.202;0.154;2024-03-25T04:53:23;100434.31;;;7.05;67.92
70407;BME280;57821;52.202;0.154;2024-03-25T04:55:49;100428.28;;;7.04;67.63
70407;BME280;57821;52.202;0.154;2024-03-25T04:58:15;100425.72;;;7.04;67.60
70407;BME280;57821;52.202;0.154;2024-03-25T05:00:40;100423.13;;;7.04;67.96
70407;BME280;57821;52.202;0.154;2024-03-25T05:03:06;100411.94;;;7.04;68.29
70407;BME280;57821;52.202;0.154;2024-03-25T05:05:32;100418.81;;;7.03;67.43
70407;BME280;57821;52.202;0.154;2024-03-25T05:07:57;100410.22;;;7.03;68.33
70407;BME280;57821;52.202;0.154;2024-03-25T05:10:23;100415.38;;;7.01;67.80
70407;BME280;57821;52.202;0.154;2024-03-25T05:12:48;100414.50;;;7.00;68.92
70407;BME280;57821;52.202;0.154;2024-03-25T05:15:15;100412.78;;;7.03;68.58
70407;BME280;57821;52.202;0.154;2024-03-25T05:17:41;100409.38;;;7.04;67.82
70407;BME280;57821;52.202;0.154;2024-03-25T05:20:07;100411.09;;;7.05;68.08
70407;BME280;57821;52.202;0.154;2024-03-25T05:22:33;100409.38;;;7.07;68.49
70407;BME280;57821;52.202;0.154;2024-03-25T05:24:59;100410.25;;;7.07;68.70
70407;BME280;57821;52.202;0.154;2024-03-25T05:27:24;100408.50;;;7.06;68.09
70407;BME280;57821;52.202;0.154;2024-03-25T05:29:50;100407.69;;;7.10;69.03
70407;BME280;57821;52.202;0.154;2024-03-25T05:32:16;100409.38;;;7.11;68.68
70407;BME280;57821;52.202;0.154;2024-03-25T05:34:47;100406.00;;;7.15;68.79
70407;BME280;57821;52.202;0.154;2024-03-25T05:37:14;100406.84;;;7.17;68.25
70407;BME280;57821;52.202;0.154;2024-03-25T05:39:40;100400.84;;;7.18;69.41
70407;BME280;57821;52.202;0.154;2024-03-25T05:42:05;100401.72;;;7.20;69.03
70407;BME280;57821;52.202;0.154;2024-03-25T05:44:31;100389.66;;;7.22;69.25
70407;BME280;57821;52.202;0.154;2024-03-25T05:46:57;100391.41;;;7.25;69.00
70407;BME280;57821;52.202;0.154;2024-03-25T05:49:23;100393.16;;;7.27;69.07
70407;BME280;57821;52.202;0.154;2024-03-25T05:51:49;100387.13;;;7.30;69.67
70407;BME280;57821;52.202;0.154;2024-03-25T05:54:17;100375.09;;;7.32;69.01
70407;BME280;57821;52.202;0.154;2024-03-25T05:56:43;100378.53;;;7.34;69.76
70407;BME280;57821;52.202;0.154;2024-03-25T05:59:09;100382.84;;;7.36;70.09
70407;BME280;57821;52.202;0.154;2024-03-25T06:01:35;100374.28;;;7.39;69.78
70407;BME280;57821;52.202;0.154;2024-03-25T06:04:03;100368.25;;;7.41;70.04
70407;BME280;57821;52.202;0.154;2024-03-25T06:06:29;100370.00;;;7.47;70.14
70407;BME280;57821;52.202;0.154;2024-03-25T06:08:55;100360.56;;;7.51;69.84
70407;BME280;57821;52.202;0.154;2024-03-25T06:11:20;100362.28;;;7.55;69.51
70407;BME280;57821;52.202;0.154;2024-03-25T06:13:47;100351.94;;;7.58;70.03
70407;BME280;57821;52.202;0.154;2024-03-25T06:16:17;100352.84;;;7.63;70.44
70407;BME280;57821;52.202;0.154;2024-03-25T06:18:43;100353.69;;;7.65;70.47
70407;BME280;57821;52.202;0.154;2024-03-25T06:21:08;100355.41;;;7.69;70.44
70407;BME280;57821;52.202;0.154;2024-03-25T06:23:34;100354.56;;;7.73;69.83
70407;BME280;57821;52.202;0.154;2024-03-25T06:26:00;100351.13;;;7.75;70.10
70407;BME280;57821;52.202;0.154;2024-03-25T06:28:26;100350.28;;;7.78;70.33
70407;BME280;57821;52.202;0.154;2024-03-25T06:30:52;100345.97;;;7.81;69.72
70407;BME280;57821;52.202;0.154;2024-03-25T06:33:36;100343.41;;;7.84;70.40
70407;BME280;57821;52.202;0.154;2024-03-25T06:36:21;100341.69;;;7.90;70.21
70407;BME280;57821;52.202;0.154;2024-03-25T06:38:47;100340.81;;;7.94;69.94
70407;BME280;57821;52.202;0.154;2024-03-25T06:41:13;100341.69;;;7.97;70.65
70407;BME280;57821;52.202;0.154;2024-03-25T06:43:39;100341.69;;;8.03;70.14
70407;BME280;57821;52.202;0.154;2024-03-25T06:46:05;100339.13;;;8.09;70.17
70407;BME280;57821;52.202;0.154;2024-03-25T06:48:32;100341.66;;;8.15;70.27
70407;BME280;57821;52.202;0.154;2024-03-25T06:50:59;100337.38;;;8.19;70.38
70407;BME280;57821;52.202;0.154;2024-03-25T06:53:25;100339.09;;;8.24;70.50
70407;BME280;57821;52.202;0.154;2024-03-25T06:55:55;100324.47;;;8.27;70.41
70407;BME280;57821;52.202;0.154;2024-03-25T06:58:25;100339.13;;;8.31;70.11
70407;BME280;57821;52.202;0.154;2024-03-25T07:00:52;100331.34;;;8.35;70.13
70407;BME280;57821;52.202;0.154;2024-03-25T07:03:18;100332.22;;;8.40;70.33
70407;BME280;57821;52.202;0.154;2024-03-25T07:05:48;100327.06;;;8.43;69.88
70407;BME280;57821;52.202;0.154;2024-03-25T07:08:15;100324.47;;;8.48;69.85
70407;BME280;57821;52.202;0.154;2024-03-25T07:10:41;100329.59;;;8.51;69.91
70407;BME280;57821;52.202;0.154;2024-03-25T07:13:07;100326.16;;;8.55;70.33
70407;BME280;57821;52.202;0.154;2024-03-25T07:15:35;100320.97;;;8.58;70.32
70407;BME280;57821;52.202;0.154;2024-03-25T07:18:02;100321.00;;;8.61;70.65
70407;BME280;57821;52.202;0.154;2024-03-25T07:20:28;100322.66;;;8.68;70.43
70407;BME280;57821;52.202;0.154;2024-03-25T07:22:53;100321.81;;;8.71;70.41
70407;BME280;57821;52.202;0.154;2024-03-25T07:25:23;100324.38;;;8.77;70.78
70407;BME280;57821;52.202;0.154;2024-03-25T07:27:49;100312.28;;;8.80;70.81
70407;BME280;57821;52.202;0.154;2024-03-25T07:30:15;100312.28;;;8.86;70.72
70407;BME280;57821;52.202;0.154;2024-03-25T07:32:40;100308.81;;;8.92;70.79
70407;BME280;57821;52.202;0.154;2024-03-25T07:35:06;100313.94;;;8.99;70.82
70407;BME280;57821;52.202;0.154;2024-03-25T07:37:33;100309.59;;;9.04;70.91
70407;BME280;57821;52.202;0.154;2024-03-25T07:39:59;100311.31;;;9.12;71.11
70407;BME280;57821;52.202;0.154;2024-03-25T07:42:25;100310.41;;;9.16;71.44
70407;BME280;57821;52.202;0.154;2024-03-25T07:44:51;100304.34;;;9.21;71.42
70407;BME280;57821;52.202;0.154;2024-03-25T07:47:16;100308.63;;;9.27;71.52
70407;BME280;57821;52.202;0.154;2024-03-25T07:49:42;100305.16;;;9.34;71.38
70407;BME280;57821;52.202;0.154;2024-03-25T07:52:08;100311.16;;;9.40;71.24
70407;BME280;57821;52.202;0.154;2024-03-25T07:54:33;100303.34;;;9.46;71.38
70407;BME280;57821;52.202;0.154;2024-03-25T07:57:00;100299.00;;;9.55;71.62
70407;BME280;57821;52.202;0.154;2024-03-25T07:59:26;100305.81;;;9.63;71.34
70407;BME280;57821;52.202;0.154;2024-03-25T08:01:52;100298.00;;;9.72;71.53
70407;BME280;57821;52.202;0.154;2024-03-25T08:04:17;100302.25;;;9.81;70.90
70407;BME280;57821;52.202;0.154;2024-03-25T08:06:43;100305.66;;;9.89;70.85
70407;BME280;57821;52.202;0.154;2024-03-25T08:09:09;100295.22;;;9.95;71.29
70407;BME280;57821;52.202;0.154;2024-03-25T08:11:35;100299.47;;;10.04;71.02
70407;BME280;57821;52.202;0.154;2024-03-25T08:14:01;100302.84;;;10.10;70.67
70407;BME280;57821;52.202;0.154;2024-03-25T08:16:27;100307.16;;;10.19;70.90
70407;BME280;57821;52.202;0.154;2024-03-25T08:18:52;100294.09;;;10.25;70.77
70407;BME280;57821;52.202;0.154;2024-03-25T08:21:18;100290.56;;;10.34;71.33
70407;BME280;57821;52.202;0.154;2024-03-25T08:23:44;100282.69;;;10.43;70.83
70407;BME280;57821;52.202;0.154;2024-03-25T08:26:11;100281.75;;;10.51;70.58
70407;BME280;57821;52.202;0.154;2024-03-25T08:28:37;100276.44;;;10.60;71.21
70407;BME280;57821;52.202;0.154;2024-03-25T08:31:04;100289.31;;;10.71;70.82
70407;BME280;57821;52.202;0.154;2024-03-25T08:33:31;100274.50;;;10.81;70.50
70407;BME280;57821;52.202;0.154;2024-03-25T08:35:57;100270.91;;;10.91;70.24
70407;BME280;57821;52.202;0.154;2024-03-25T08:38:23;100269.03;;;11.02;70.54
70407;BME280;57821;52.202;0.154;2024-03-25T08:40:48;100266.28;;;11.14;70.36
70407;BME280;57821;52.202;0.154;2024-03-25T08:43:14;100264.44;;;11.24;70.34
70407;BME280;57821;52.202;0.154;2024-03-25T08:45:41;100261.63;;;11.37;70.56
70407;BME280;57821;52.202;0.154;2024-03-25T08:48:07;100261.41;;;11.52;70.61
70407;BME280;57821;52.202;0.154;2024-03-25T08:50:33;100260.34;;;11.64;70.32
70407;BME280;57821;52.202;0.154;2024-03-25T08:52:58;100274.00;;;11.78;69.61
70407;BME280;57821;52.202;0.154;2024-03-25T08:55:24;100262.56;;;11.88;69.25
70407;BME280;57821;52.202;0.154;2024-03-25T08:57:50;100258.91;;;12.00;69.04
70407;BME280;57821;52.202;0.154;2024-03-25T09:00:17;100258.69;;;12.12;68.94
70407;BME280;57821;52.202;0.154;2024-03-25T09:02:43;100252.47;;;12.21;67.99
70407;BME280;57821;52.202;0.154;2024-03-25T09:05:09;100246.19;;;12.34;68.52
70407;BME280;57821;52.202;0.154;2024-03-25T09:07:36;100242.41;;;12.49;68.22
70407;BME280;57821;52.202;0.154;2024-03-25T09:10:02;100231.56;;;12.70;67.34
70407;BME280;57821;52.202;0.154;2024-03-25T09:12:46;100230.25;;;12.92;67.05
70407;BME280;57821;52.202;0.154;2024-03-25T09:15:12;100228.03;;;13.15;67.01
70407;BME280;57821;52.202;0.154;2024-03-25T09:17:40;100228.28;;;13.42;66.19
70407;BME280;57821;52.202;0.154;2024-03-25T09:20:06;100219.91;;;13.65;64.01
70407;BME280;57821;52.202;0.154;2024-03-25T09:22:58;100220.38;;;13.80;63.59
70407;BME280;57821;52.202;0.154;2024-03-25T09:25:24;100224.38;;;13.93;62.40
70407;BME280;57821;52.202;0.154;2024-03-25T09:27:50;100223.19;;;14.07;60.70
70407;BME280;57821;52.202;0.154;2024-03-25T09:30:17;100216.94;;;14.12;59.22
70407;BME280;57821;52.202;0.154;2024-03-25T09:32:45;100215.91;;;14.18;59.00
70407;BME280;57821;52.202;0.154;2024-03-25T09:35:11;100219.41;;;14.17;58.71
70407;BME280;57821;52.202;0.154;2024-03-25T09:37:37;100213.44;;;14.13;57.84
70407;BME280;57821;52.202;0.154;2024-03-25T09:40:04;100214.38;;;14.11;57.96
70407;BME280;57821;52.202;0.154;2024-03-25T09:45:12;100198.88;;;14.05;57.22
70407;BME280;57821;52.202;0.154;2024-03-25T09:47:39;100205.06;;;14.02;56.59
70407;BME280;57821;52.202;0.154;2024-03-25T09:50:06;100205.97;;;13.99;56.06
70407;BME280;57821;52.202;0.154;2024-03-25T09:52:33;100202.47;;;14.01;55.88
70407;BME280;57821;52.202;0.154;2024-03-25T09:54:59;100211.19;;;13.99;55.77
70407;BME280;57821;52.202;0.154;2024-03-25T09:57:25;100204.34;;;13.95;55.20
70407;BME280;57821;52.202;0.154;2024-03-25T09:59:52;100206.22;;;13.90;54.48
70407;BME280;57821;52.202;0.154;2024-03-25T10:02:18;100210.72;;;13.85;53.94
70407;BME280;57821;52.202;0.154;2024-03-25T10:04:46;100205.72;;;13.76;54.46
70407;BME280;57821;52.202;0.154;2024-03-25T10:07:24;100200.78;;;13.66;54.27
70407;BME280;57821;52.202;0.154;2024-03-25T10:09:52;100194.75;;;13.64;55.02
70407;BME280;57821;52.202;0.154;2024-03-25T10:12:18;100197.50;;;13.57;54.95
70407;BME280;57821;52.202;0.154;2024-03-25T10:14:44;100190.75;;;13.50;55.21
70407;BME280;57821;52.202;0.154;2024-03-25T10:17:10;100189.97;;;13.45;55.41
70407;BME280;57821;52.202;0.154;2024-03-25T10:19:36;100188.31;;;13.43;55.11
70407;BME280;57821;52.202;0.154;2024-03-25T10:22:06;100189.19;;;13.43;55.40
70407;BME280;57821;52.202;0.154;2024-03-25T10:24:45;100189.16;;;13.45;55.65
70407;BME280;57821;52.202;0.154;2024-03-25T10:27:19;100182.22;;;13.44;56.22
70407;BME280;57821;52.202;0.154;2024-03-25T10:29:53;100181.41;;;13.42;55.36
70407;BME280;57821;52.202;0.154;2024-03-25T10:32:21;100183.13;;;13.43;55.73
70407;BME280;57821;52.202;0.154;2024-03-25T10:34:50;100176.22;;;13.40;55.75
70407;BME280;57821;52.202;0.154;2024-03-25T10:37:17;100174.47;;;13.41;56.15
70407;BME280;57821;52.202;0.154;2024-03-25T10:39:50;100173.53;;;13.45;54.76
70407;BME280;57821;52.202;0.154;2024-03-25T10:42:20;100166.47;;;13.48;55.47
70407;BME280;57821;52.202;0.154;2024-03-25T10:44:49;100163.72;;;13.54;55.17
70407;BME280;57821;52.202;0.154;2024-03-25T10:47:24;100162.78;;;13.57;54.37
70407;BME280;57821;52.202;0.154;2024-03-25T10:50:08;100164.47;;;13.60;53.95
70407;BME280;57821;52.202;0.154;2024-03-25T10:52:38;100165.00;;;13.72;54.47
70407;BME280;57821;52.202;0.154;2024-03-25T10:55:06;100154.50;;;13.75;54.35
70407;BME280;57821;52.202;0.154;2024-03-25T10:57:33;100153.44;;;13.82;53.26
70407;BME280;57821;52.202;0.154;2024-03-25T11:00:01;100147.38;;;13.82;53.63
70407;BME280;57821;52.202;0.154;2024-03-25T11:02:30;100144.69;;;13.85;53.74
70407;BME280;57821;52.202;0.154;2024-03-25T11:04:56;100148.81;;;13.93;52.92
70407;BME280;57821;52.202;0.154;2024-03-25T11:07:30;100148.63;;;13.99;52.75
70407;BME280;57821;52.202;0.154;2024-03-25T11:10:03;100144.31;;;13.98;52.05
70407;BME280;57821;52.202;0.154;2024-03-25T11:12:38;100149.50;;;14.00;51.91
70407;BME280;57821;52.202;0.154;2024-03-25T11:15:06;100144.28;;;14.00;51.97
70407;BME280;57821;52.202;0.154;2024-03-25T11:17:33;100146.00;;;14.01;51.88
70407;BME280;57821;52.202;0.154;2024-03-25T11:20:15;100137.31;;;14.01;51.13
70407;BME280;57821;52.202;0.154;2024-03-25T11:22:51;100139.78;;;14.05;51.59
70407;BME280;57821;52.202;0.154;2024-03-25T11:25:19;100144.94;;;14.08;51.21
70407;BME280;57821;52.202;0.154;2024-03-25T11:27:46;100133.56;;;14.11;51.28
70407;BME280;57821;52.202;0.154;2024-03-25T11:30:13;100131.78;;;14.13;50.11
70407;BME280;57821;52.202;0.154;2024-03-25T11:33:06;100126.56;;;14.13;49.75
70407;BME280;57821;52.202;0.154;2024-03-25T11:35:38;100122.09;;;14.16;49.73
70407;BME280;57821;52.202;0.154;2024-03-25T11:38:04;100121.03;;;14.23;49.73
70407;BME280;57821;52.202;0.154;2024-03-25T11:40:30;100107.00;;;14.27;50.02
70407;BME280;57821;52.202;0.154;2024-03-25T11:42:56;100109.44;;;14.33;49.88
70407;BME280;57821;52.202;0.154;2024-03-25T11:45:22;100105.81;;;14.39;50.00
70407;BME280;57821;52.202;0.154;2024-03-25T11:47:49;100107.47;;;14.43;50.02
70407;BME280;57821;52.202;0.154;2024-03-25T11:50:19;100095.13;;;14.48;49.88
70407;BME280;57821;52.202;0.154;2024-03-25T11:52:45;100100.03;;;14.59;49.94
70407;BME280;57821;52.202;0.154;2024-03-25T11:55:19;100084.13;;;14.66;48.89
70407;BME280;57821;52.202;0.154;2024-03-25T11:57:54;100078.72;;;14.72;48.83
70407;BME280;57821;52.202;0.154;2024-03-25T12:00:20;100087.06;;;14.84;48.77
70407;BME280;57821;52.202;0.154;2024-03-25T12:02:48;100078.97;;;14.91;47.99
70407;BME280;57821;52.202;0.154;2024-03-25T12:05:16;100077.94;;;14.97;47.84
70407;BME280;57821;52.202;0.154;2024-03-25T12:07:41;100072.50;;;15.03;47.38
70407;BME280;57821;52.202;0.154;2024-03-25T12:10:07;100075.72;;;15.11;47.59
70407;BME280;57821;52.202;0.154;2024-03-25T12:12:52;100073.63;;;15.22;47.28
70407;BME280;57821;52.202;0.154;2024-03-25T12:15:21;100068.09;;;15.31;46.95
70407;BME280;57821;52.202;0.154;2024-03-25T12:17:48;100057.44;;;15.37;47.21
70407;BME280;57821;52.202;0.154;2024-03-25T12:20:16;100047.75;;;15.41;46.93
70407;BME280;57821;52.202;0.154;2024-03-25T12:22:43;100046.88;;;15.40;46.33
70407;BME280;57821;52.202;0.154;2024-03-25T12:25:09;100038.22;;;15.38;46.11
70407;BME280;57821;52.202;0.154;2024-03-25T12:27:38;100036.75;;;15.31;46.01
70407;BME280;57821;52.202;0.154;2024-03-25T12:30:07;100037.19;;;15.19;46.32
70407;BME280;57821;52.202;0.154;2024-03-25T12:34:59;100024.09;;;14.94;45.68
70407;BME280;57821;52.202;0.154;2024-03-25T12:37:28;100021.00;;;14.82;46.54
70407;BME280;57821;52.202;0.154;2024-03-25T12:39:54;100018.00;;;14.67;47.21
70407;BME280;57821;52.202;0.154;2024-03-25T12:42:20;100024.47;;;14.56;47.76
70407;BME280;57821;52.202;0.154;2024-03-25T12:44:45;100023.88;;;14.46;47.89
70407;BME280;57821;52.202;0.154;2024-03-25T12:47:11;100020.56;;;14.41;48.64
70407;BME280;57821;52.202;0.154;2024-03-25T12:49:37;100012.72;;;14.43;48.93
70407;BME280;57821;52.202;0.154;2024-03-25T12:52:05;100006.53;;;14.45;49.14
70407;BME280;57821;52.202;0.154;2024-03-25T12:54:32;100004.53;;;14.53;48.89
70407;BME280;57821;52.202;0.154;2024-03-25T12:56:58;100001.78;;;14.58;48.71
70407;BME280;57821;52.202;0.154;2024-03-25T12:59:24;99984.38;;;14.58;48.96
70407;BME280;57821;52.202;0.154;2024-03-25T13:01:50;99984.22;;;14.63;48.64